createdAt,value
2022-10-16T00:01:29.777Z,7.38
2022-10-16T00:03:59.641Z,7.31
2022-10-16T00:06:28.375Z,7.27
2022-10-16T00:08:56.526Z,7.29
2022-10-16T00:11:29.763Z,7.29
2022-10-16T00:14:00.458Z,7.26
2022-10-16T00:16:29.270Z,7.23
2022-10-16T00:18:57.140Z,7.24
2022-10-16T00:21:27.629Z,7.20
2022-10-16T00:24:13.887Z,7.22
2022-10-16T00:26:41.761Z,7.18
2022-10-16T00:29:10.126Z,7.15
2022-10-16T00:31:37.573Z,7.12
2022-10-16T00:34:05.163Z,7.13
2022-10-16T00:36:33.197Z,7.10
2022-10-16T00:39:02.428Z,7.04
2022-10-16T00:41:31.706Z,7.06
2022-10-16T00:44:01.257Z,7.05
2022-10-16T00:46:42.845Z,7.09
2022-10-16T00:49:11.810Z,7.08
2022-10-16T00:51:46.325Z,7.05
2022-10-16T00:54:18.908Z,7.03
2022-10-16T00:56:47.507Z,7.03
2022-10-16T00:59:23.823Z,7.04
2022-10-16T01:01:52.063Z,6.99
2022-10-16T01:04:19.895Z,6.94
2022-10-16T01:07:05.391Z,7.00
2022-10-16T01:09:40.351Z,6.95
2022-10-16T01:12:20.087Z,6.90
2022-10-16T01:15:03.109Z,6.87
2022-10-16T01:17:53.240Z,6.96
2022-10-16T01:20:31.995Z,6.94
2022-10-16T01:23:25.125Z,6.89
2022-10-16T01:26:12.069Z,6.93
2022-10-16T01:29:10.935Z,6.93
2022-10-16T01:31:42.122Z,6.79
2022-10-16T01:34:18.138Z,6.82
2022-10-16T01:36:56.735Z,6.96
2022-10-16T01:39:30.470Z,6.93
2022-10-16T01:42:10.408Z,6.95
2022-10-16T01:44:39.950Z,6.91
2022-10-16T01:47:10.438Z,6.92
2022-10-16T01:49:41.019Z,6.89
2022-10-16T01:52:14.551Z,6.87
2022-10-16T01:54:45.086Z,6.88
2022-10-16T01:57:15.209Z,6.84
2022-10-16T01:59:49.885Z,6.88
2022-10-16T02:02:19.782Z,6.81
2022-10-16T02:04:52.943Z,6.77
2022-10-16T02:07:20.386Z,6.72
2022-10-16T02:09:47.845Z,6.69
2022-10-16T02:12:23.486Z,6.65
2022-10-16T02:14:51.514Z,6.66
2022-10-16T02:17:19.730Z,6.62
2022-10-16T02:19:49.258Z,6.61
2022-10-16T02:22:23.452Z,6.63
2022-10-16T02:25:02.839Z,6.63
2022-10-16T02:27:51.523Z,6.66
2022-10-16T02:30:41.926Z,6.66
2022-10-16T02:33:14.683Z,6.58
2022-10-16T02:35:44.843Z,6.45
2022-10-16T02:38:14.085Z,6.40
2022-10-16T02:40:41.972Z,6.43
2022-10-16T02:43:10.618Z,6.37
2022-10-16T02:45:38.163Z,6.33
2022-10-16T02:48:06.087Z,6.29
2022-10-16T02:50:33.633Z,6.26
2022-10-16T02:53:01.223Z,6.20
2022-10-16T02:55:28.994Z,6.19
2022-10-16T02:57:56.534Z,6.18
2022-10-16T03:00:24.054Z,6.09
2022-10-16T03:02:51.611Z,6.04
2022-10-16T03:05:19.480Z,6.05
2022-10-16T03:07:47.047Z,6.02
2022-10-16T03:10:14.522Z,5.93
2022-10-16T03:12:42.031Z,6.02
2022-10-16T03:15:09.896Z,5.98
2022-10-16T03:17:37.517Z,5.95
2022-10-16T03:20:05.310Z,5.94
2022-10-16T03:22:32.758Z,5.88
2022-10-16T03:25:00.293Z,5.90
2022-10-16T03:27:28.140Z,5.85
2022-10-16T03:29:56.035Z,5.81
2022-10-16T03:32:23.575Z,5.75
2022-10-16T03:34:50.950Z,5.76
2022-10-16T03:37:18.350Z,5.76
2022-10-16T03:39:45.792Z,5.66
2022-10-16T03:42:13.756Z,5.73
2022-10-16T03:44:41.324Z,5.68
2022-10-16T03:47:08.765Z,5.72
2022-10-16T03:49:36.161Z,5.67
2022-10-16T03:52:03.804Z,5.68
2022-10-16T03:54:31.211Z,5.72
2022-10-16T03:56:58.722Z,5.72
2022-10-16T03:59:26.154Z,5.69
2022-10-16T04:01:53.572Z,5.66
2022-10-16T04:04:23.425Z,5.65
2022-10-16T04:06:50.932Z,5.60
2022-10-16T04:09:18.312Z,5.60
2022-10-16T04:11:45.724Z,5.64
2022-10-16T04:14:13.179Z,5.61
2022-10-16T04:16:40.750Z,5.56
2022-10-16T04:19:08.162Z,5.61
2022-10-16T04:21:35.800Z,5.62
2022-10-16T04:24:03.436Z,5.58
2022-10-16T04:26:31.205Z,5.66
2022-10-16T04:28:58.765Z,5.63
2022-10-16T04:31:26.271Z,5.64
2022-10-16T04:33:53.723Z,5.68
2022-10-16T04:36:23.258Z,5.70
2022-10-16T04:38:52.921Z,5.76
2022-10-16T04:41:20.334Z,5.84
2022-10-16T04:43:47.965Z,5.83
2022-10-16T04:46:15.428Z,5.86
2022-10-16T04:48:42.907Z,6.03
2022-10-16T04:51:10.310Z,6.14
2022-10-16T04:53:37.851Z,6.28
2022-10-16T04:56:05.513Z,6.44
2022-10-16T04:58:33.028Z,6.57
2022-10-16T05:01:00.455Z,6.70
2022-10-16T05:03:28.199Z,6.77
2022-10-16T05:05:55.922Z,6.85
2022-10-16T05:08:23.542Z,6.88
2022-10-16T05:10:50.933Z,6.87
2022-10-16T05:13:18.655Z,6.86
2022-10-16T05:15:49.669Z,7.04
2022-10-16T05:18:17.798Z,7.10
2022-10-16T05:20:45.274Z,7.19
2022-10-16T05:25:41.179Z,7.49
2022-10-16T05:28:08.653Z,7.67
2022-10-16T05:30:38.682Z,7.90
2022-10-16T05:33:06.167Z,8.14
2022-10-16T05:35:35.187Z,8.40
2022-10-16T05:38:02.680Z,8.68
2022-10-16T05:40:30.063Z,9.01
2022-10-16T05:42:57.553Z,9.20
2022-10-16T05:45:25.074Z,9.36
2022-10-16T05:47:52.598Z,9.56
2022-10-16T05:50:20.239Z,9.73
2022-10-16T05:52:47.639Z,9.91
2022-10-16T05:55:15.126Z,9.91
2022-10-16T05:57:42.525Z,9.98
2022-10-16T06:00:10.988Z,10.12
2022-10-16T06:02:41.547Z,10.38
2022-10-16T06:05:09.267Z,10.63
2022-10-16T06:07:37.298Z,10.81
2022-10-16T06:10:05.917Z,10.84
2022-10-16T06:12:33.438Z,11.01
2022-10-16T06:15:00.851Z,11.47
2022-10-16T06:17:28.644Z,12.15
2022-10-16T06:19:56.380Z,12.75
2022-10-16T06:22:23.795Z,13.30
2022-10-16T06:24:51.263Z,13.79
2022-10-16T06:27:18.731Z,14.34
2022-10-16T06:29:46.424Z,14.69
2022-10-16T06:32:13.806Z,15.04
2022-10-16T06:34:44.116Z,15.27
2022-10-16T06:37:11.758Z,15.57
2022-10-16T06:39:39.158Z,15.95
2022-10-16T06:42:06.645Z,16.25
2022-10-16T06:44:37.035Z,16.47
2022-10-16T06:47:04.873Z,16.76
2022-10-16T06:49:32.283Z,16.93
2022-10-16T06:51:59.781Z,16.68
2022-10-16T06:54:27.423Z,16.21
2022-10-16T06:56:55.671Z,15.83
2022-10-16T06:59:23.663Z,15.16
2022-10-16T07:01:51.030Z,14.73
2022-10-16T07:04:18.565Z,14.47
2022-10-16T07:06:46.154Z,14.25
2022-10-16T07:09:13.684Z,14.14
2022-10-16T07:11:41.561Z,13.89
2022-10-16T07:14:18.394Z,13.75
2022-10-16T07:16:45.900Z,13.51
2022-10-16T07:19:15.585Z,13.27
2022-10-16T07:21:43.356Z,13.19
2022-10-16T07:24:16.464Z,13.56
2022-10-16T07:26:45.829Z,13.84
2022-10-16T07:29:19.055Z,13.90
2022-10-16T07:31:48.015Z,13.77
2022-10-16T07:34:17.910Z,13.52
2022-10-16T07:36:45.503Z,13.53
2022-10-16T07:39:12.915Z,13.70
2022-10-16T07:41:40.467Z,13.77
2022-10-16T07:44:07.986Z,13.90
2022-10-16T07:46:37.065Z,14.12
2022-10-16T07:49:04.880Z,14.30
2022-10-16T07:51:32.368Z,14.62
2022-10-16T07:53:59.876Z,14.90
2022-10-16T07:56:27.304Z,15.06
2022-10-16T07:58:54.918Z,15.25
2022-10-16T08:01:22.473Z,15.28
2022-10-16T08:03:51.841Z,15.11
2022-10-16T08:06:23.523Z,14.96
2022-10-16T08:08:54.516Z,14.96
2022-10-16T08:11:21.970Z,15.27
2022-10-16T08:13:49.440Z,15.62
2022-10-16T08:16:18.327Z,16.56
2022-10-16T08:18:45.850Z,17.53
2022-10-16T08:21:20.387Z,18.67
2022-10-16T08:23:54.632Z,19.72
2022-10-16T08:26:26.603Z,20.67
2022-10-16T08:28:54.265Z,21.37
2022-10-16T08:31:22.035Z,22.17
2022-10-16T08:33:49.783Z,22.69
2022-10-16T08:36:17.867Z,23.13
2022-10-16T08:38:48.749Z,23.25
2022-10-16T08:41:50.557Z,23.64
2022-10-16T08:44:45.757Z,23.84
2022-10-16T08:47:54.283Z,24.57
2022-10-16T08:50:30.535Z,24.80
2022-10-16T08:52:58.299Z,24.98
2022-10-16T08:55:43.134Z,25.65
2022-10-16T08:58:19.818Z,25.89
2022-10-16T09:00:59.873Z,26.16
2022-10-16T09:04:01.093Z,26.74
2022-10-16T09:06:45.327Z,25.80
2022-10-16T09:09:44.874Z,26.18
2022-10-16T09:12:19.452Z,26.77
2022-10-16T09:14:50.315Z,27.27
2022-10-16T09:17:26.969Z,27.67
2022-10-16T09:20:33.548Z,28.33
2022-10-16T09:23:16.258Z,28.72
2022-10-16T09:25:47.000Z,28.96
2022-10-16T09:28:14.832Z,29.36
2022-10-16T09:30:42.631Z,29.87
2022-10-16T09:33:12.017Z,29.76
2022-10-16T09:35:49.822Z,30.06
2022-10-16T09:38:32.831Z,30.36
2022-10-16T09:41:03.596Z,30.42
2022-10-16T09:44:01.373Z,31.37
2022-10-16T09:46:37.230Z,30.84
2022-10-16T09:49:20.290Z,30.08
2022-10-16T09:51:48.591Z,29.60
2022-10-16T09:54:21.994Z,29.54
2022-10-16T09:56:53.017Z,29.73
2022-10-16T09:59:25.053Z,30.13
2022-10-16T10:01:56.831Z,29.95
2022-10-16T10:04:26.842Z,30.38
2022-10-16T10:06:56.751Z,30.52
2022-10-16T10:09:39.116Z,30.55
2022-10-16T10:12:19.721Z,30.65
2022-10-16T10:14:58.999Z,30.49
2022-10-16T10:17:28.478Z,30.80
2022-10-16T10:19:56.275Z,31.10
2022-10-16T10:22:40.477Z,31.33
2022-10-16T10:25:16.601Z,31.48
2022-10-16T10:27:44.104Z,32.08
2022-10-16T10:30:31.423Z,31.91
2022-10-16T10:33:40.233Z,31.61
2022-10-16T10:36:13.348Z,30.92
2022-10-16T10:38:53.874Z,31.40
2022-10-16T10:41:38.722Z,30.22
2022-10-16T10:44:35.117Z,30.28
2022-10-16T10:47:33.427Z,30.90
2022-10-16T10:50:17.811Z,30.95
2022-10-16T10:52:48.135Z,30.87
2022-10-16T10:55:39.282Z,31.52
2022-10-16T10:58:30.005Z,32.38
2022-10-16T11:01:09.531Z,32.45
2022-10-16T11:03:58.424Z,32.57
2022-10-16T11:06:56.723Z,32.02
2022-10-16T11:09:26.619Z,30.41
2022-10-16T11:12:15.935Z,29.37
2022-10-16T11:14:50.119Z,29.39
2022-10-16T11:17:30.305Z,29.36
2022-10-16T11:20:15.846Z,29.81
2022-10-16T11:22:51.056Z,29.53
2022-10-16T11:25:28.629Z,29.97
2022-10-16T11:28:21.548Z,30.32
2022-10-16T11:31:03.507Z,30.45
2022-10-16T11:33:37.881Z,30.10
2022-10-16T11:36:05.715Z,30.27
2022-10-16T11:38:50.482Z,30.87
2022-10-16T11:41:38.275Z,31.10
2022-10-16T11:44:27.150Z,30.61
2022-10-16T11:47:57.686Z,30.08
2022-10-16T11:50:34.264Z,30.42
2022-10-16T11:53:23.505Z,30.24
2022-10-16T11:55:51.026Z,30.60
2022-10-16T11:58:36.955Z,31.02
2022-10-16T12:01:10.470Z,30.27
2022-10-16T12:04:16.484Z,29.59
2022-10-16T12:07:10.922Z,28.64
2022-10-16T12:09:41.218Z,26.97
2022-10-16T12:12:31.395Z,26.82
2022-10-16T12:15:40.653Z,24.89
2022-10-16T12:18:25.715Z,22.18
2022-10-16T12:21:05.837Z,20.25
2022-10-16T12:23:55.159Z,19.23
2022-10-16T12:26:45.595Z,18.33
2022-10-16T12:29:33.927Z,17.48
2022-10-16T12:32:03.237Z,16.77
2022-10-16T12:34:38.860Z,16.36
2022-10-16T12:37:16.655Z,15.99
2022-10-16T12:39:44.414Z,15.61
2022-10-16T12:42:27.375Z,15.60
2022-10-16T12:44:56.094Z,15.17
2022-10-16T12:47:36.324Z,15.13
2022-10-16T12:50:09.066Z,14.79
2022-10-16T12:52:40.106Z,14.68
2022-10-16T12:55:18.714Z,14.58
2022-10-16T12:58:04.852Z,14.48
2022-10-16T13:00:41.250Z,14.34
2022-10-16T13:03:20.770Z,14.23
2022-10-16T13:06:15.187Z,14.14
2022-10-16T13:09:02.465Z,14.04
2022-10-16T13:11:48.262Z,13.89
2022-10-16T13:14:15.731Z,13.83
2022-10-16T13:16:49.013Z,13.65
2022-10-16T13:19:39.856Z,13.48
2022-10-16T13:22:21.073Z,13.34
2022-10-16T13:24:54.604Z,13.32
2022-10-16T13:27:22.013Z,13.21
2022-10-16T13:29:59.805Z,13.22
2022-10-16T13:32:28.458Z,13.09
2022-10-16T13:34:56.750Z,13.00
2022-10-16T13:37:26.596Z,12.91
2022-10-16T13:40:18.422Z,12.90
2022-10-16T13:42:45.991Z,12.80
2022-10-16T13:45:26.605Z,12.80
2022-10-16T13:48:05.367Z,12.77
2022-10-16T13:50:33.416Z,12.66
2022-10-16T13:53:13.316Z,12.60
2022-10-16T13:55:41.149Z,12.60
2022-10-16T13:58:13.323Z,12.53
2022-10-16T14:00:42.721Z,12.38
2022-10-16T14:03:16.281Z,12.40
2022-10-16T14:05:52.872Z,12.34
2022-10-16T14:08:20.910Z,12.32
2022-10-16T14:10:54.421Z,12.22
2022-10-16T14:13:39.905Z,12.21
2022-10-16T14:16:17.061Z,12.08
2022-10-16T14:18:47.936Z,12.01
2022-10-16T14:21:17.370Z,12.01
2022-10-16T14:23:44.995Z,11.89
2022-10-16T14:26:16.348Z,11.90
2022-10-16T14:28:45.681Z,11.89
2022-10-16T14:31:57.505Z,11.98
2022-10-16T14:34:28.565Z,11.85
2022-10-16T14:36:57.365Z,11.76
2022-10-16T14:39:27.139Z,11.72
2022-10-16T14:41:58.010Z,11.69
2022-10-16T14:44:35.142Z,11.66
2022-10-16T14:47:14.326Z,11.64
2022-10-16T14:49:43.423Z,11.60
2022-10-16T14:52:14.312Z,11.61
2022-10-16T14:54:42.314Z,11.52
2022-10-16T14:57:21.827Z,11.49
2022-10-16T14:59:52.269Z,11.44
2022-10-16T15:02:28.175Z,11.40
2022-10-16T15:04:56.601Z,11.29
2022-10-16T15:07:24.613Z,11.30
2022-10-16T15:09:52.706Z,11.22
2022-10-16T15:12:20.166Z,11.19
2022-10-16T15:14:47.687Z,11.22
2022-10-16T15:17:17.425Z,11.20
2022-10-16T15:19:47.615Z,11.12
2022-10-16T15:22:15.120Z,11.11
2022-10-16T15:24:42.714Z,11.02
2022-10-16T15:27:10.588Z,11.08
2022-10-16T15:29:38.065Z,11.02
2022-10-16T15:32:05.747Z,11.04
2022-10-16T15:34:33.386Z,11.07
2022-10-16T15:37:04.428Z,10.94
2022-10-16T15:39:32.019Z,10.98
2022-10-16T15:41:59.644Z,10.91
2022-10-16T15:44:31.097Z,10.97
2022-10-16T15:46:59.125Z,11.00
2022-10-16T15:49:26.578Z,10.97
2022-10-16T15:51:55.977Z,10.89
2022-10-16T15:54:23.898Z,10.88
2022-10-16T15:56:51.376Z,10.82
2022-10-16T15:59:21.746Z,10.83
2022-10-16T16:01:49.377Z,10.84
2022-10-16T16:04:42.299Z,10.88
2022-10-16T16:07:08.331Z,10.80
2022-10-16T16:09:35.867Z,10.77
2022-10-16T16:12:03.614Z,10.79
2022-10-16T16:14:31.180Z,10.76
2022-10-16T16:16:59.344Z,10.71
2022-10-16T16:19:27.055Z,10.72
2022-10-16T16:21:54.499Z,10.69
2022-10-16T16:24:21.990Z,10.71
2022-10-16T16:26:49.504Z,10.67
2022-10-16T16:29:17.514Z,10.69
2022-10-16T16:31:45.235Z,10.63
2022-10-16T16:34:12.881Z,10.57
2022-10-16T16:36:41.547Z,10.62
2022-10-16T16:39:09.423Z,10.66
2022-10-16T16:41:36.864Z,10.66
2022-10-16T16:44:07.745Z,10.64
2022-10-16T16:46:35.736Z,10.58
2022-10-16T16:49:04.109Z,10.47
2022-10-16T16:51:31.619Z,10.50
2022-10-16T16:53:59.111Z,10.51
2022-10-16T16:56:27.642Z,10.46
2022-10-16T16:58:56.991Z,10.45
2022-10-16T17:01:26.398Z,10.43
2022-10-16T17:03:56.607Z,10.38
2022-10-16T17:06:27.082Z,10.43
2022-10-16T17:08:55.418Z,10.40
2022-10-16T17:11:25.081Z,10.32
2022-10-16T17:13:56.807Z,10.32
2022-10-16T17:16:28.040Z,10.28
2022-10-16T17:18:55.693Z,10.23
2022-10-16T17:21:23.482Z,10.28
2022-10-16T17:23:53.448Z,10.21
2022-10-16T17:26:21.166Z,10.26
2022-10-16T17:28:55.766Z,10.18
2022-10-16T17:31:26.980Z,10.21
2022-10-16T17:33:55.096Z,10.24
2022-10-16T17:36:24.521Z,10.23
2022-10-16T17:38:52.511Z,10.08
2022-10-16T17:41:23.403Z,10.11
2022-10-16T17:43:52.575Z,10.11
2022-10-16T17:46:23.632Z,10.08
2022-10-16T17:48:55.940Z,10.02
2022-10-16T17:51:31.489Z,10.04
2022-10-16T17:54:01.413Z,9.99
2022-10-16T17:56:30.627Z,9.94
2022-10-16T17:59:00.256Z,9.93
2022-10-16T18:01:30.191Z,10.00
2022-10-16T18:04:00.921Z,9.94
2022-10-16T18:06:29.358Z,9.79
2022-10-16T18:08:58.468Z,9.81
2022-10-16T18:11:27.364Z,9.77
2022-10-16T18:13:59.607Z,9.72
2022-10-16T18:16:29.261Z,9.68
2022-10-16T18:18:57.614Z,9.72
2022-10-16T18:21:27.588Z,9.66
2022-10-16T18:23:55.798Z,9.55
2022-10-16T18:26:24.082Z,9.56
2022-10-16T18:28:56.005Z,9.45
2022-10-16T18:31:26.242Z,9.53
2022-10-16T18:33:55.892Z,9.49
2022-10-16T18:36:32.650Z,9.53
2022-10-16T18:39:03.493Z,9.49
2022-10-16T18:41:32.761Z,9.48
2022-10-16T18:44:00.221Z,9.47
2022-10-16T18:46:28.581Z,9.52
2022-10-16T18:48:57.725Z,9.36
2022-10-16T18:51:37.323Z,9.48
2022-10-16T18:54:11.361Z,9.36
2022-10-16T18:56:40.153Z,9.23
2022-10-16T18:59:08.698Z,9.30
2022-10-16T19:01:40.854Z,9.20
2022-10-16T19:04:11.565Z,9.19
2022-10-16T19:06:42.886Z,9.24
2022-10-16T19:09:11.266Z,9.25
2022-10-16T19:11:41.578Z,9.23
2022-10-16T19:14:14.383Z,9.23
2022-10-16T19:16:43.230Z,9.16
2022-10-16T19:19:14.932Z,9.22
2022-10-16T19:21:43.587Z,9.20
2022-10-16T19:24:14.354Z,9.18
2022-10-16T19:26:42.283Z,9.18
2022-10-16T19:29:11.121Z,9.11
2022-10-16T19:31:39.569Z,9.01
2022-10-16T19:34:07.827Z,9.08
2022-10-16T19:36:37.220Z,9.06
2022-10-16T19:41:51.541Z,9.02
2022-10-16T19:44:19.475Z,9.07
2022-10-16T19:46:50.577Z,8.98
2022-10-16T19:49:21.740Z,8.97
2022-10-16T19:51:51.804Z,8.94
2022-10-16T19:54:19.650Z,8.93
2022-10-16T19:56:47.131Z,9.06
2022-10-16T19:59:19.107Z,9.01
2022-10-16T20:01:47.528Z,8.87
2022-10-16T20:04:15.312Z,8.89
2022-10-16T20:06:43.204Z,8.93
2022-10-16T20:09:10.758Z,8.87
2022-10-16T20:11:38.431Z,8.71
2022-10-16T20:14:07.966Z,8.83
2022-10-16T20:16:35.567Z,8.80
2022-10-16T20:19:04.307Z,8.69
2022-10-16T20:21:35.537Z,8.69
2022-10-16T20:24:06.731Z,8.67
2022-10-16T20:26:37.356Z,8.61
2022-10-16T20:29:06.044Z,8.59
2022-10-16T20:31:42.892Z,8.49
2022-10-16T20:34:12.404Z,8.51
2022-10-16T20:36:42.866Z,8.53
2022-10-16T20:39:13.576Z,8.54
2022-10-16T20:41:41.095Z,8.53
2022-10-16T20:44:08.561Z,8.48
2022-10-16T20:46:36.050Z,8.48
2022-10-16T20:49:10.898Z,8.45
2022-10-16T20:51:44.128Z,8.42
2022-10-16T20:54:12.157Z,8.46
2022-10-16T20:56:39.675Z,8.43
2022-10-16T20:59:07.289Z,8.43
2022-10-16T21:01:36.601Z,8.39
2022-10-16T21:04:06.851Z,8.34
2022-10-16T21:06:37.161Z,8.28
2022-10-16T21:09:06.706Z,8.22
2022-10-16T21:11:35.998Z,8.23
2022-10-16T21:14:05.916Z,8.21
2022-10-16T21:16:34.447Z,8.18
2022-10-16T21:19:02.100Z,8.17
2022-10-16T21:21:33.546Z,8.20
2022-10-16T21:24:02.138Z,8.17
2022-10-16T21:26:30.434Z,8.16
2022-10-16T21:29:03.621Z,8.15
2022-10-16T21:31:31.823Z,8.10
2022-10-16T21:33:59.269Z,8.12
2022-10-16T21:36:39.223Z,8.03
2022-10-16T21:39:09.813Z,8.15
2022-10-16T21:41:38.266Z,8.07
2022-10-16T21:44:06.871Z,8.03
2022-10-16T21:46:37.823Z,8.12
2022-10-16T21:49:07.149Z,8.04
2022-10-16T21:51:38.221Z,8.05
2022-10-16T21:54:10.137Z,8.03
2022-10-16T21:56:37.595Z,8.00
2022-10-16T21:59:05.965Z,7.95
2022-10-16T22:01:33.588Z,8.00
2022-10-16T22:04:01.083Z,7.95
2022-10-16T22:06:29.606Z,7.93
2022-10-16T22:09:02.119Z,7.94
2022-10-16T22:11:37.732Z,7.98
2022-10-16T22:14:10.860Z,7.94
2022-10-16T22:16:39.255Z,7.89
2022-10-16T22:19:09.692Z,7.85
2022-10-16T22:21:39.022Z,7.93
2022-10-16T22:24:08.167Z,7.92
2022-10-16T22:26:36.436Z,7.87
2022-10-16T22:29:04.764Z,7.87
2022-10-16T22:31:33.033Z,7.79
2022-10-16T22:34:02.567Z,7.85
2022-10-16T22:36:30.374Z,7.79
2022-10-16T22:38:58.536Z,7.82
2022-10-16T22:41:26.383Z,7.81
2022-10-16T22:43:54.279Z,7.84
2022-10-16T22:46:27.106Z,7.82
2022-10-16T22:48:55.981Z,7.71
2022-10-16T22:51:25.225Z,7.70
2022-10-16T22:53:52.677Z,7.77
2022-10-16T22:56:21.589Z,7.71
2022-10-16T22:58:49.677Z,7.75
2022-10-16T23:01:24.478Z,7.86
2022-10-16T23:03:51.970Z,7.81
2022-10-16T23:06:19.403Z,7.77
2022-10-16T23:08:54.773Z,7.83
2022-10-16T23:11:22.556Z,7.82
2022-10-16T23:13:50.351Z,7.80
2022-10-16T23:16:19.888Z,7.83
2022-10-16T23:18:48.072Z,7.83
2022-10-16T23:21:21.375Z,7.86
2022-10-16T23:23:50.449Z,7.85
2022-10-16T23:26:23.554Z,7.83
2022-10-16T23:28:51.343Z,7.84
2022-10-16T23:31:19.491Z,7.86
2022-10-16T23:33:46.991Z,7.89
2022-10-16T23:36:17.649Z,7.93
2022-10-16T23:38:45.733Z,7.88
2022-10-16T23:41:13.849Z,7.92
2022-10-16T23:43:41.317Z,7.86
2022-10-16T23:46:10.485Z,7.85
2022-10-16T23:48:38.786Z,7.86
2022-10-16T23:51:07.013Z,7.86
2022-10-16T23:53:34.816Z,7.83
2022-10-16T23:56:02.380Z,7.78
2022-10-16T23:58:30.227Z,7.80
